Petersville, Texas
Current Conditions -  °F | °C
As of 5:00 PM on Thursday 20 Nov 2014 (Local Time) from KVCT Reporting Station
Moderate Rain Moderate Rain  
Wind Chill: 19°   Ceiling: 600
Heat Index: 19°   Visibility: 3mi
Dew Point: 18°   Wind: 9mph
Humidity: 93%   Direction: 150°SSE
Pressure: 30.05"   Gusts: NA
Location:  29.2421°N, 97.0692°W
Report Text: KVCT 202300Z 15008KT 3SM RA BR BKN006 OVC010 19/18 A3005 RMK AO2 CIG 003V008 P0001 T01890178
Loading
Personal Weather Stations






























Interactive Weather Map New forecast layout! Learn more

10-Day Weather Forecast

Advertisements
Track Severe Weather on mobile